createdAt,value
2022-11-26T00:00:53.783Z,78081.09
2022-11-26T00:03:31.974Z,78089.22
2022-11-26T00:05:59.235Z,78097.34
2022-11-26T00:08:33.355Z,78095.31
2022-11-26T00:11:01.934Z,78105.44
2022-11-26T00:13:31.322Z,78105.44
2022-11-26T00:15:58.517Z,78103.41
2022-11-26T00:18:26.727Z,78103.41
2022-11-26T00:20:56.903Z,78101.38
2022-11-26T00:23:26.509Z,78109.50
2022-11-26T00:26:01.110Z,78101.38
2022-11-26T00:28:30.373Z,78105.44
2022-11-26T00:31:00.673Z,78105.44
2022-11-26T00:33:29.146Z,78105.44
2022-11-26T00:36:01.864Z,78105.44
2022-11-26T00:38:30.823Z,78097.34
2022-11-26T00:40:58.677Z,78105.44
2022-11-26T00:43:25.468Z,78101.38
2022-11-26T00:45:52.814Z,78105.44
2022-11-26T00:48:19.794Z,78101.38
2022-11-26T00:50:49.728Z,78089.22
2022-11-26T00:53:21.744Z,78093.28
2022-11-26T00:55:50.253Z,78101.38
2022-11-26T00:58:30.317Z,78105.44
2022-11-26T01:00:59.907Z,78109.50
2022-11-26T01:03:27.103Z,78105.44
2022-11-26T01:05:57.271Z,78101.38
2022-11-26T01:08:34.156Z,78101.38
2022-11-26T01:11:03.748Z,78105.44
2022-11-26T01:13:30.942Z,78109.50
2022-11-26T01:15:59.956Z,78107.47
2022-11-26T01:18:27.892Z,78113.56
2022-11-26T01:20:54.953Z,78117.63
2022-11-26T01:23:21.796Z,78121.66
2022-11-26T01:25:49.016Z,78121.66
2022-11-26T01:28:18.812Z,78121.66
2022-11-26T01:30:46.786Z,78113.56
2022-11-26T01:33:13.674Z,78113.56
2022-11-26T01:35:40.909Z,78109.50
2022-11-26T01:38:13.205Z,78109.50
2022-11-26T01:41:03.544Z,78117.63
2022-11-26T01:43:39.925Z,78105.44
2022-11-26T01:46:19.327Z,78109.50
2022-11-26T01:48:48.665Z,78117.63
2022-11-26T01:51:36.326Z,78119.63
2022-11-26T01:54:03.459Z,78121.66
2022-11-26T01:56:45.625Z,78129.78
2022-11-26T01:59:22.005Z,78129.78
2022-11-26T02:01:51.414Z,78133.84
2022-11-26T02:04:29.255Z,78121.66
2022-11-26T02:06:56.883Z,78117.63
2022-11-26T02:09:25.562Z,78117.63
2022-11-26T02:11:52.951Z,78117.63
2022-11-26T02:14:29.772Z,78125.72
2022-11-26T02:17:04.468Z,78121.66
2022-11-26T02:19:46.416Z,78121.66
2022-11-26T02:22:35.602Z,78121.66
2022-11-26T02:25:19.183Z,78117.63
2022-11-26T02:28:04.578Z,78109.50
2022-11-26T02:30:36.809Z,78113.56
2022-11-26T02:33:11.348Z,78109.50
2022-11-26T02:35:47.410Z,78109.50
2022-11-26T02:38:22.675Z,78105.44
2022-11-26T02:40:50.399Z,78103.41
2022-11-26T02:43:18.679Z,78101.38
2022-11-26T02:45:52.443Z,78103.41
2022-11-26T02:48:27.754Z,78105.44
2022-11-26T02:51:00.253Z,78109.50
2022-11-26T02:53:31.765Z,78105.44
2022-11-26T02:56:06.430Z,78115.59
2022-11-26T02:58:34.667Z,78113.56
2022-11-26T03:01:07.229Z,78109.50
2022-11-26T03:03:40.475Z,78111.53
2022-11-26T03:06:13.273Z,78111.53
2022-11-26T03:08:43.062Z,78109.50
2022-11-26T03:11:09.868Z,78101.38
2022-11-26T03:13:37.016Z,78107.47
2022-11-26T03:16:04.603Z,78109.50
2022-11-26T03:18:31.957Z,78103.41
2022-11-26T03:20:58.730Z,78107.47
2022-11-26T03:23:25.911Z,78113.56
2022-11-26T03:25:52.754Z,78111.53
2022-11-26T03:28:20.051Z,78105.44
2022-11-26T03:30:49.979Z,78107.47
2022-11-26T03:33:17.694Z,78105.44
2022-11-26T03:35:45.342Z,78101.38
2022-11-26T03:38:12.521Z,78097.34
2022-11-26T03:40:39.554Z,78105.44
2022-11-26T03:43:06.671Z,78111.53
2022-11-26T03:45:33.564Z,78113.56
2022-11-26T03:48:01.062Z,78113.56
2022-11-26T03:50:27.913Z,78113.56
2022-11-26T03:52:55.057Z,78121.66
2022-11-26T03:55:21.896Z,78121.66
2022-11-26T03:57:48.983Z,78117.63
2022-11-26T04:00:16.212Z,78119.63
2022-11-26T04:02:43.391Z,78117.63
2022-11-26T04:05:10.482Z,78125.72
2022-11-26T04:07:37.722Z,78121.66
2022-11-26T04:10:05.526Z,78129.78
2022-11-26T04:12:32.927Z,78125.72
2022-11-26T04:14:59.732Z,78133.84
2022-11-26T04:17:27.274Z,78123.69
2022-11-26T04:19:54.255Z,78125.72
2022-11-26T04:22:21.393Z,78125.72
2022-11-26T04:24:48.267Z,78129.78
2022-11-26T04:27:15.394Z,78129.78
2022-11-26T04:29:42.192Z,78125.72
2022-11-26T04:32:09.417Z,78129.78
2022-11-26T04:34:36.522Z,78121.66
2022-11-26T04:37:03.876Z,78125.72
2022-11-26T04:39:31.568Z,78125.72
2022-11-26T04:41:59.696Z,78129.78
2022-11-26T04:44:26.860Z,78125.72
2022-11-26T04:46:54.058Z,78129.78
2022-11-26T04:49:20.902Z,78129.78
2022-11-26T04:51:48.118Z,78133.84
2022-11-26T04:54:14.969Z,78131.81
2022-11-26T04:56:42.102Z,78133.84
2022-11-26T04:59:08.999Z,78141.94
2022-11-26T05:01:36.172Z,78141.94
2022-11-26T05:04:03.351Z,78158.16
2022-11-26T05:06:30.834Z,78150.06
2022-11-26T05:08:57.757Z,78156.16
2022-11-26T05:11:25.101Z,78168.31
2022-11-26T05:13:52.012Z,78170.34
2022-11-26T05:16:19.196Z,78170.34
2022-11-26T05:18:46.261Z,78174.41
2022-11-26T05:21:13.797Z,78182.50
2022-11-26T05:23:40.947Z,78178.44
2022-11-26T05:26:08.075Z,78182.50
2022-11-26T05:28:34.967Z,78186.56
2022-11-26T05:31:03.746Z,78194.69
2022-11-26T05:33:31.458Z,78190.63
2022-11-26T05:35:59.009Z,78190.63
2022-11-26T05:38:27.333Z,78194.69
2022-11-26T05:40:54.896Z,78192.66
2022-11-26T05:43:21.990Z,78194.69
2022-11-26T05:45:49.152Z,78202.78
2022-11-26T05:48:16.274Z,78198.72
2022-11-26T05:50:43.539Z,78200.75
2022-11-26T05:53:10.487Z,78200.75
2022-11-26T05:55:38.189Z,78202.78
2022-11-26T05:58:05.362Z,78206.84
2022-11-26T06:00:32.707Z,78210.91
2022-11-26T06:02:59.780Z,78210.91
2022-11-26T06:05:27.074Z,78223.06
2022-11-26T06:07:54.189Z,78223.06
2022-11-26T06:10:21.330Z,78227.13
2022-11-26T06:12:48.385Z,78227.13
2022-11-26T06:15:15.725Z,78235.25
2022-11-26T06:17:42.656Z,78247.41
2022-11-26T06:20:10.631Z,78253.50
2022-11-26T06:22:41.980Z,78263.63
2022-11-26T06:25:10.998Z,78259.56
2022-11-26T06:27:38.421Z,78259.56
2022-11-26T06:30:07.433Z,78261.59
2022-11-26T06:32:34.735Z,78271.75
2022-11-26T06:35:01.889Z,78267.69
2022-11-26T06:37:28.723Z,78279.84
2022-11-26T06:39:56.182Z,78279.84
2022-11-26T06:42:23.224Z,78296.09
2022-11-26T06:44:50.527Z,78287.97
2022-11-26T06:47:17.811Z,78275.81
2022-11-26T06:49:45.069Z,78281.88
2022-11-26T06:52:13.659Z,78287.97
2022-11-26T06:54:41.159Z,78283.91
2022-11-26T06:57:08.425Z,78283.91
2022-11-26T06:59:35.580Z,78279.84
2022-11-26T07:02:02.650Z,78281.88
2022-11-26T07:04:30.138Z,78292.03
2022-11-26T07:06:57.025Z,78290.00
2022-11-26T07:09:24.204Z,78300.13
2022-11-26T07:11:51.264Z,78304.19
2022-11-26T07:14:18.488Z,78300.13
2022-11-26T07:16:45.374Z,78308.25
2022-11-26T07:19:14.516Z,78316.34
2022-11-26T07:21:41.657Z,78324.47
2022-11-26T07:24:08.759Z,78338.66
2022-11-26T07:26:36.075Z,78332.59
2022-11-26T07:29:03.561Z,78340.69
2022-11-26T07:31:30.802Z,78348.81
2022-11-26T07:33:57.858Z,78365.03
2022-11-26T07:36:30.309Z,78371.13
2022-11-26T07:38:59.020Z,78369.09
2022-11-26T07:41:27.805Z,78373.16
2022-11-26T07:43:55.336Z,78371.13
2022-11-26T07:46:26.371Z,78377.22
2022-11-26T07:48:55.282Z,78381.25
2022-11-26T07:51:28.968Z,78381.25
2022-11-26T07:53:57.822Z,78373.16
2022-11-26T07:56:25.894Z,78377.22
2022-11-26T07:58:54.135Z,78373.16
2022-11-26T08:01:24.737Z,78381.25
2022-11-26T08:03:52.165Z,78385.31
2022-11-26T08:06:21.815Z,78385.31
2022-11-26T08:08:49.061Z,78385.31
2022-11-26T08:11:19.465Z,78385.31
2022-11-26T08:13:47.568Z,78389.38
2022-11-26T08:16:15.394Z,78397.50
2022-11-26T08:18:42.998Z,78403.56
2022-11-26T08:21:10.643Z,78399.50
2022-11-26T08:23:38.296Z,78403.56
2022-11-26T08:29:00.416Z,78421.81
2022-11-26T08:31:28.445Z,78427.91
2022-11-26T08:34:02.837Z,78421.81
2022-11-26T08:36:31.274Z,78421.81
2022-11-26T08:38:59.898Z,78421.81
2022-11-26T08:41:27.443Z,78417.78
2022-11-26T08:44:09.608Z,78415.75
2022-11-26T08:46:38.799Z,78411.69
2022-11-26T08:49:07.348Z,78411.69
2022-11-26T08:51:34.920Z,78409.66
2022-11-26T08:54:02.414Z,78405.59
2022-11-26T08:56:29.765Z,78405.59
2022-11-26T08:58:56.647Z,78419.78
2022-11-26T09:01:27.032Z,78425.88
2022-11-26T09:03:57.140Z,78417.78
2022-11-26T09:06:26.510Z,78407.63
2022-11-26T09:09:12.279Z,78417.78
2022-11-26T09:12:07.423Z,78413.72
2022-11-26T09:14:41.518Z,78405.59
2022-11-26T09:17:11.982Z,78417.78
2022-11-26T09:19:39.396Z,78427.91
2022-11-26T09:22:06.564Z,78421.81
2022-11-26T09:24:33.793Z,78431.97
2022-11-26T09:27:07.326Z,78429.94
2022-11-26T09:29:34.884Z,78423.84
2022-11-26T09:32:22.847Z,78421.81
2022-11-26T09:34:48.937Z,78413.72
2022-11-26T09:37:16.190Z,78413.72
2022-11-26T09:39:43.197Z,78403.56
2022-11-26T09:42:37.938Z,78405.59
2022-11-26T09:45:05.000Z,78409.66
2022-11-26T09:47:40.663Z,78409.66
2022-11-26T09:50:21.015Z,78409.66
2022-11-26T09:53:20.094Z,78405.59
2022-11-26T09:55:52.443Z,78405.59
2022-11-26T09:58:30.641Z,78395.47
2022-11-26T10:01:00.740Z,78397.50
2022-11-26T10:03:36.723Z,78381.25
2022-11-26T10:06:39.950Z,78381.25
2022-11-26T10:09:07.208Z,78381.25
2022-11-26T10:11:40.217Z,78385.31
2022-11-26T10:14:20.181Z,78381.25
2022-11-26T10:17:28.217Z,78399.50
2022-11-26T10:20:10.415Z,78413.72
2022-11-26T10:22:57.333Z,78417.78
2022-11-26T10:25:31.491Z,78419.78
2022-11-26T10:28:00.054Z,78425.88
2022-11-26T10:30:30.180Z,78417.78
2022-11-26T10:33:02.460Z,78431.97
2022-11-26T10:35:30.635Z,78438.06
2022-11-26T10:37:58.330Z,78434.00
2022-11-26T10:40:30.965Z,78442.09
2022-11-26T10:43:03.937Z,78442.09
2022-11-26T10:45:37.621Z,78442.09
2022-11-26T10:48:25.704Z,78442.09
2022-11-26T10:50:59.589Z,78429.94
2022-11-26T10:53:29.407Z,78425.88
2022-11-26T10:56:03.797Z,78419.78
2022-11-26T10:58:39.857Z,78450.22
2022-11-26T11:01:08.022Z,78413.72
2022-11-26T11:06:41.585Z,78407.63
2022-11-26T11:09:28.617Z,78405.59
2022-11-26T11:12:17.944Z,78409.66
2022-11-26T11:14:46.789Z,78417.78
2022-11-26T11:17:30.972Z,78417.78
2022-11-26T11:20:03.245Z,78423.84
2022-11-26T11:22:31.035Z,78434.00
2022-11-26T11:24:59.846Z,78438.06
2022-11-26T11:27:41.258Z,78450.22
2022-11-26T11:30:33.081Z,78446.16
2022-11-26T11:33:19.129Z,78446.16
2022-11-26T11:36:14.074Z,78438.06
2022-11-26T11:38:52.038Z,78440.06
2022-11-26T11:41:33.864Z,78438.06
2022-11-26T11:44:06.524Z,78436.03
2022-11-26T11:46:39.774Z,78438.06
2022-11-26T11:50:04.642Z,78442.09
2022-11-26T11:52:46.599Z,78438.06
2022-11-26T11:55:21.440Z,78442.09
2022-11-26T11:58:14.400Z,78446.16
2022-11-26T12:00:57.112Z,78442.09
2022-11-26T12:03:50.354Z,78458.34
2022-11-26T12:06:21.487Z,78462.38
2022-11-26T12:08:48.689Z,78466.44
2022-11-26T12:11:27.869Z,78462.38
2022-11-26T12:14:01.050Z,78466.44
2022-11-26T12:16:34.362Z,78474.56
2022-11-26T12:19:07.974Z,78476.59
2022-11-26T12:21:40.940Z,78466.44
2022-11-26T12:24:38.059Z,78462.38
2022-11-26T12:27:22.501Z,78462.38
2022-11-26T12:30:05.234Z,78470.50
2022-11-26T12:32:39.920Z,78466.44
2022-11-26T12:35:14.932Z,78476.59
2022-11-26T12:37:42.966Z,78468.47
2022-11-26T12:40:23.064Z,78466.44
2022-11-26T12:42:59.384Z,78466.44
2022-11-26T12:45:26.733Z,78478.63
2022-11-26T12:48:00.800Z,78486.72
2022-11-26T12:50:42.170Z,78496.88
2022-11-26T12:53:39.998Z,78494.84
2022-11-26T12:56:19.336Z,78498.91
2022-11-26T12:59:06.375Z,78494.84
2022-11-26T13:01:33.624Z,78507.00
2022-11-26T13:04:29.359Z,78504.97
2022-11-26T13:07:18.335Z,78507.00
2022-11-26T13:10:10.196Z,78502.94
2022-11-26T13:12:52.545Z,78507.00
2022-11-26T13:15:28.032Z,78500.94
2022-11-26T13:17:59.526Z,78500.94
2022-11-26T13:20:43.395Z,78511.06
2022-11-26T13:23:28.809Z,78515.13
2022-11-26T13:26:40.764Z,78517.16
2022-11-26T13:29:35.694Z,78517.16
2022-11-26T13:32:27.589Z,78515.13
2022-11-26T13:35:21.587Z,78519.19
2022-11-26T13:38:17.008Z,78517.16
2022-11-26T13:40:57.384Z,78517.16
2022-11-26T13:43:34.724Z,78527.28
2022-11-26T13:46:22.293Z,78535.41
2022-11-26T13:48:55.597Z,78531.34
2022-11-26T13:51:40.209Z,78535.41
2022-11-26T13:54:10.255Z,78547.56
2022-11-26T13:56:38.559Z,78551.63
2022-11-26T13:59:15.840Z,78547.56
2022-11-26T14:01:43.423Z,78559.75
2022-11-26T14:04:13.479Z,78563.81
2022-11-26T14:07:05.333Z,78563.81
2022-11-26T14:09:47.682Z,78567.84
2022-11-26T14:12:16.126Z,78571.91
2022-11-26T14:14:47.790Z,78571.91
2022-11-26T14:17:17.825Z,78575.97
2022-11-26T14:19:44.970Z,78567.84
2022-11-26T14:22:11.788Z,78571.91
2022-11-26T14:24:51.107Z,78569.88
2022-11-26T14:27:25.429Z,78565.81
2022-11-26T14:30:13.456Z,78571.91
2022-11-26T14:33:10.301Z,78575.97
2022-11-26T14:35:39.498Z,78575.97
2022-11-26T14:38:22.566Z,78600.31
2022-11-26T14:40:57.693Z,78596.25
2022-11-26T14:43:25.364Z,78600.31
2022-11-26T14:46:13.974Z,78604.38
2022-11-26T14:48:44.621Z,78612.47
2022-11-26T14:51:19.433Z,78614.50
2022-11-26T14:53:50.043Z,78616.53
2022-11-26T14:56:19.624Z,78618.56
2022-11-26T14:58:51.781Z,78620.59
2022-11-26T15:01:25.453Z,78624.66
2022-11-26T15:03:56.820Z,78636.81
2022-11-26T15:06:27.598Z,78640.88
2022-11-26T15:09:07.618Z,78640.88
2022-11-26T15:11:37.940Z,78636.81
2022-11-26T15:14:05.469Z,78644.94
2022-11-26T15:16:38.449Z,78644.94
2022-11-26T15:19:07.111Z,78644.94
2022-11-26T15:21:35.082Z,78653.03
2022-11-26T15:24:08.033Z,78651.03
2022-11-26T15:26:36.741Z,78653.03
2022-11-26T15:29:28.652Z,78657.09
2022-11-26T15:31:55.940Z,78653.03
2022-11-26T15:34:24.860Z,78665.22
2022-11-26T15:36:52.323Z,78661.16
2022-11-26T15:39:31.194Z,78655.06
2022-11-26T15:42:04.589Z,78657.09
2022-11-26T15:44:37.638Z,78649.00
2022-11-26T15:47:19.127Z,78653.03
2022-11-26T15:49:50.068Z,78659.13
2022-11-26T15:52:24.002Z,78657.09
2022-11-26T15:55:16.822Z,78665.22
2022-11-26T15:57:48.778Z,78661.16
2022-11-26T16:00:28.080Z,78665.22
2022-11-26T16:02:55.636Z,78665.22
2022-11-26T16:05:36.129Z,78681.44
2022-11-26T16:08:24.635Z,78673.31
2022-11-26T16:11:06.273Z,78669.28
2022-11-26T16:13:34.974Z,78675.34
2022-11-26T16:16:26.339Z,78677.38
2022-11-26T16:18:59.263Z,78677.38
2022-11-26T16:21:34.400Z,78681.44
2022-11-26T16:24:06.068Z,78673.31
2022-11-26T16:26:55.016Z,78677.38
2022-11-26T16:29:22.301Z,78679.41
2022-11-26T16:31:49.312Z,78681.44
2022-11-26T16:34:16.564Z,78685.50
2022-11-26T16:36:44.052Z,78685.50
2022-11-26T16:39:12.739Z,78689.56
2022-11-26T16:41:40.048Z,78689.56
2022-11-26T16:44:07.625Z,78685.50
2022-11-26T16:46:37.314Z,78685.50
2022-11-26T16:49:05.099Z,78689.56
2022-11-26T16:51:32.246Z,78697.66
2022-11-26T16:53:59.763Z,78703.75
2022-11-26T16:56:39.861Z,78705.78
2022-11-26T16:59:18.455Z,78711.88
2022-11-26T17:01:45.473Z,78711.88
2022-11-26T17:04:14.010Z,78713.91
2022-11-26T17:06:41.806Z,78713.91
2022-11-26T17:09:21.097Z,78713.91
2022-11-26T17:11:48.354Z,78713.91
2022-11-26T17:14:15.517Z,78705.78
2022-11-26T17:16:42.599Z,78709.84
2022-11-26T17:19:15.167Z,78713.91
2022-11-26T17:21:42.802Z,78717.94
2022-11-26T17:24:10.010Z,78722.00
2022-11-26T17:26:37.084Z,78736.22
2022-11-26T17:29:04.271Z,78738.22
2022-11-26T17:31:31.263Z,78734.19
2022-11-26T17:33:58.463Z,78742.28
2022-11-26T17:36:25.897Z,78754.47
2022-11-26T17:38:53.115Z,78752.44
2022-11-26T17:41:20.649Z,78750.41
2022-11-26T17:43:47.867Z,78742.28
2022-11-26T17:46:20.418Z,78746.34
2022-11-26T17:48:49.572Z,78754.47
2022-11-26T17:51:17.399Z,78748.38
2022-11-26T17:53:45.116Z,78742.28
2022-11-26T17:56:21.156Z,78750.41
2022-11-26T17:58:49.920Z,78746.34
2022-11-26T18:01:17.541Z,78752.44
2022-11-26T18:03:45.413Z,78752.44
2022-11-26T18:06:17.565Z,78760.56
2022-11-26T18:08:45.626Z,78756.50
2022-11-26T18:11:15.222Z,78758.53
2022-11-26T18:13:43.061Z,78764.59
2022-11-26T18:16:09.907Z,78786.91
2022-11-26T18:18:37.425Z,78762.56
2022-11-26T18:21:05.037Z,78770.69
2022-11-26T18:23:32.626Z,78770.69
2022-11-26T18:25:59.669Z,78770.69
2022-11-26T18:28:27.139Z,78766.63
2022-11-26T18:30:58.396Z,78766.63
2022-11-26T18:33:26.136Z,78766.63
2022-11-26T18:35:53.317Z,78762.56
2022-11-26T18:38:20.813Z,78770.69
2022-11-26T18:40:57.801Z,78770.69
2022-11-26T18:43:26.201Z,78774.75
2022-11-26T18:45:53.319Z,78782.84
2022-11-26T18:48:22.576Z,78786.91
2022-11-26T18:50:59.463Z,78784.88
2022-11-26T18:53:28.328Z,78774.75
2022-11-26T18:55:56.566Z,78782.84
2022-11-26T18:58:25.106Z,78778.81
2022-11-26T19:00:58.671Z,78774.75
2022-11-26T19:03:27.472Z,78774.75
2022-11-26T19:05:54.861Z,78774.75
2022-11-26T19:08:22.275Z,78774.75
2022-11-26T19:10:49.678Z,78768.66
2022-11-26T19:13:16.828Z,78778.81
2022-11-26T19:15:45.867Z,78774.75
2022-11-26T19:18:14.041Z,78786.91
2022-11-26T19:20:49.624Z,78790.97
2022-11-26T19:23:18.371Z,78793.00
2022-11-26T19:25:45.756Z,78786.91
2022-11-26T19:28:13.084Z,78786.91
2022-11-26T19:30:40.047Z,78790.97
2022-11-26T19:33:07.930Z,78799.09
2022-11-26T19:35:38.894Z,78795.03
2022-11-26T19:38:06.140Z,78807.19
2022-11-26T19:40:33.207Z,78811.25
2022-11-26T19:43:00.449Z,78803.16
2022-11-26T19:45:27.375Z,78811.25
2022-11-26T19:47:54.909Z,78811.25
2022-11-26T19:50:22.056Z,78809.22
2022-11-26T19:52:49.237Z,78811.25
2022-11-26T19:55:16.148Z,78813.28
2022-11-26T19:57:43.602Z,78815.31
2022-11-26T20:00:11.574Z,78815.31
2022-11-26T20:02:38.907Z,78819.38
2022-11-26T20:05:06.203Z,78815.31
2022-11-26T20:07:33.713Z,78823.44
2022-11-26T20:10:00.751Z,78819.38
2022-11-26T20:12:28.473Z,78819.38
2022-11-26T20:14:55.672Z,78819.38
2022-11-26T20:17:23.027Z,78811.25
2022-11-26T20:19:50.139Z,78815.31
2022-11-26T20:22:18.288Z,78811.25
2022-11-26T20:24:45.372Z,78819.38
2022-11-26T20:27:12.963Z,78819.38
2022-11-26T20:29:40.325Z,78815.31
2022-11-26T20:32:08.514Z,78811.25
2022-11-26T20:34:35.883Z,78817.34
2022-11-26T20:37:03.858Z,78819.38
2022-11-26T20:39:31.451Z,78815.31
2022-11-26T20:41:59.172Z,78815.31
2022-11-26T20:44:28.519Z,78823.44
2022-11-26T20:46:57.076Z,78817.34
2022-11-26T20:49:23.993Z,78815.31
2022-11-26T20:51:51.486Z,78819.38
2022-11-26T20:54:18.426Z,78821.41
2022-11-26T20:56:45.956Z,78821.41
2022-11-26T20:59:12.833Z,78819.38
2022-11-26T21:01:40.177Z,78815.31
2022-11-26T21:04:07.624Z,78809.22
2022-11-26T21:06:35.678Z,78811.25
2022-11-26T21:09:05.546Z,78803.16
2022-11-26T21:11:33.164Z,78813.28
2022-11-26T21:14:01.760Z,78811.25
2022-11-26T21:16:30.597Z,78815.31
2022-11-26T21:18:58.053Z,78815.31
2022-11-26T21:21:27.405Z,78813.28
2022-11-26T21:23:55.376Z,78819.38
2022-11-26T21:26:25.517Z,78821.41
2022-11-26T21:28:54.910Z,78811.25
2022-11-26T21:31:23.049Z,78827.47
2022-11-26T21:34:03.938Z,78823.44
2022-11-26T21:36:33.948Z,78835.59
2022-11-26T21:39:01.414Z,78827.47
2022-11-26T21:41:29.030Z,78835.59
2022-11-26T21:43:56.588Z,78827.47
2022-11-26T21:46:27.590Z,78827.47
2022-11-26T21:48:56.107Z,78829.50
2022-11-26T21:51:28.844Z,78833.56
2022-11-26T21:53:57.548Z,78827.47
2022-11-26T21:56:30.200Z,78827.47
2022-11-26T21:58:59.202Z,78827.47
2022-11-26T22:01:29.475Z,78831.53
2022-11-26T22:04:00.162Z,78827.47
2022-11-26T22:06:28.052Z,78843.72
2022-11-26T22:08:55.616Z,78835.59
2022-11-26T22:11:29.063Z,78839.66
2022-11-26T22:13:56.278Z,78831.53
2022-11-26T22:16:26.091Z,78843.72
2022-11-26T22:18:54.416Z,78843.72
2022-11-26T22:21:27.913Z,78843.72
2022-11-26T22:23:55.915Z,78847.78
2022-11-26T22:26:23.788Z,78847.78
2022-11-26T22:28:52.456Z,78855.88
2022-11-26T22:31:29.559Z,78853.84
2022-11-26T22:34:11.435Z,78843.72
2022-11-26T22:36:39.946Z,78851.81
2022-11-26T22:39:11.493Z,78847.78
2022-11-26T22:41:41.180Z,78855.88
2022-11-26T22:44:09.247Z,78859.94
2022-11-26T22:46:38.358Z,78859.94
2022-11-26T22:49:06.782Z,78857.91
2022-11-26T22:51:35.406Z,78851.81
2022-11-26T22:54:05.125Z,78864.00
2022-11-26T22:56:37.296Z,78855.88
2022-11-26T22:59:05.501Z,78868.06
2022-11-26T23:01:35.282Z,78872.09
2022-11-26T23:04:05.064Z,78876.16
2022-11-26T23:06:34.509Z,78864.00
2022-11-26T23:09:03.374Z,78864.00
2022-11-26T23:11:34.027Z,78859.94
2022-11-26T23:14:07.341Z,78857.91
2022-11-26T23:16:37.482Z,78868.06
2022-11-26T23:19:05.778Z,78859.94
2022-11-26T23:21:36.263Z,78864.00
2022-11-26T23:24:04.201Z,78859.94
2022-11-26T23:26:33.911Z,78872.09
2022-11-26T23:29:02.496Z,78874.13
2022-11-26T23:31:33.576Z,78864.00
2022-11-26T23:34:01.293Z,78872.09
2022-11-26T23:36:29.787Z,78864.00
2022-11-26T23:38:58.651Z,78868.06
2022-11-26T23:41:28.157Z,78864.00
2022-11-26T23:43:55.223Z,78859.94
2022-11-26T23:46:24.137Z,78864.00
2022-11-26T23:48:51.869Z,78859.94
2022-11-26T23:51:27.643Z,78859.94
2022-11-26T23:53:54.776Z,78876.16
2022-11-26T23:56:26.588Z,78876.16
2022-11-26T23:58:58.937Z,78859.94
